sensor_id;sensor_type;location;lat;lon;timestamp;temperature;humidity
68251;DHT22;55066;51.560;4.642;2022-10-31T00:01:31;12.03;99.00
68251;DHT22;55066;51.560;4.642;2022-10-31T00:03:57;11.95;99.99
68251;DHT22;55066;51.560;4.642;2022-10-31T00:06:22;11.82;99.99
68251;DHT22;55066;51.560;4.642;2022-10-31T00:08:53;11.77;99.99
68251;DHT22;55066;51.560;4.642;2022-10-31T00:11:18;11.72;99.99
68251;DHT22;55066;51.560;4.642;2022-10-31T00:13:44;11.62;99.99
68251;DHT22;55066;51.560;4.642;2022-10-31T00:16:17;11.51;99.99
68251;DHT22;55066;51.560;4.642;2022-10-31T00:18:43;11.42;99.99
68251;DHT22;55066;51.560;4.642;2022-10-31T00:21:08;11.45;99.99
68251;DHT22;55066;51.560;4.642;2022-10-31T00:23:33;11.55;99.99
68251;DHT22;55066;51.560;4.642;2022-10-31T00:26:03;11.58;99.99
68251;DHT22;55066;51.560;4.642;2022-10-31T00:28:29;11.44;99.99
68251;DHT22;55066;51.560;4.642;2022-10-31T00:31:01;11.35;99.99
68251;DHT22;55066;51.560;4.642;2022-10-31T00:33:27;11.30;99.99
68251;DHT22;55066;51.560;4.642;2022-10-31T00:35:53;11.31;99.99
68251;DHT22;55066;51.560;4.642;2022-10-31T00:38:19;11.27;99.99
68251;DHT22;55066;51.560;4.642;2022-10-31T00:40:44;11.28;99.99
68251;DHT22;55066;51.560;4.642;2022-10-31T00:43:09;11.19;99.99
68251;DHT22;55066;51.560;4.642;2022-10-31T00:45:35;11.20;99.99
68251;DHT22;55066;51.560;4.642;2022-10-31T00:48:00;11.27;99.99
68251;DHT22;55066;51.560;4.642;2022-10-31T00:50:26;11.27;99.99
68251;DHT22;55066;51.560;4.642;2022-10-31T00:52:51;11.28;99.99
68251;DHT22;55066;51.560;4.642;2022-10-31T00:55:16;11.30;99.99
68251;DHT22;55066;51.560;4.642;2022-10-31T00:57:42;11.23;99.99
68251;DHT22;55066;51.560;4.642;2022-10-31T01:00:08;11.07;99.99
68251;DHT22;55066;51.560;4.642;2022-10-31T01:02:34;10.99;99.99
68251;DHT22;55066;51.560;4.642;2022-10-31T01:04:59;10.93;99.99
68251;DHT22;55066;51.560;4.642;2022-10-31T01:07:25;11.00;99.99
68251;DHT22;55066;51.560;4.642;2022-10-31T01:09:50;11.03;99.99
68251;DHT22;55066;51.560;4.642;2022-10-31T01:12:15;11.06;99.99
68251;DHT22;55066;51.560;4.642;2022-10-31T01:14:44;11.04;99.99
68251;DHT22;55066;51.560;4.642;2022-10-31T01:17:11;11.06;99.96
68251;DHT22;55066;51.560;4.642;2022-10-31T01:19:36;11.03;99.98
68251;DHT22;55066;51.560;4.642;2022-10-31T01:22:02;11.00;99.73
68251;DHT22;55066;51.560;4.642;2022-10-31T01:24:28;10.92;99.83
68251;DHT22;55066;51.560;4.642;2022-10-31T01:26:53;10.86;99.99
68251;DHT22;55066;51.560;4.642;2022-10-31T01:29:19;10.59;99.99
68251;DHT22;55066;51.560;4.642;2022-10-31T01:31:44;10.51;99.99
68251;DHT22;55066;51.560;4.642;2022-10-31T01:34:14;10.41;99.99
68251;DHT22;55066;51.560;4.642;2022-10-31T01:36:40;10.31;99.99
68251;DHT22;55066;51.560;4.642;2022-10-31T01:39:14;10.33;99.99
68251;DHT22;55066;51.560;4.642;2022-10-31T01:41:42;10.42;99.99
68251;DHT22;55066;51.560;4.642;2022-10-31T01:49:17;10.45;99.99
68251;DHT22;55066;51.560;4.642;2022-10-31T01:51:50;10.52;99.99
68251;DHT22;55066;51.560;4.642;2022-10-31T01:54:20;10.44;99.99
68251;DHT22;55066;51.560;4.642;2022-10-31T01:56:50;10.37;99.99
68251;DHT22;55066;51.560;4.642;2022-10-31T01:59:19;10.36;99.99
68251;DHT22;55066;51.560;4.642;2022-10-31T02:01:47;10.33;99.99
68251;DHT22;55066;51.560;4.642;2022-10-31T02:04:13;10.24;99.99
68251;DHT22;55066;51.560;4.642;2022-10-31T02:06:56;10.21;99.99
68251;DHT22;55066;51.560;4.642;2022-10-31T02:09:23;10.13;99.99
68251;DHT22;55066;51.560;4.642;2022-10-31T02:11:55;10.17;99.99
68251;DHT22;55066;51.560;4.642;2022-10-31T02:14:23;10.20;99.99
68251;DHT22;55066;51.560;4.642;2022-10-31T02:16:51;10.25;99.99
68251;DHT22;55066;51.560;4.642;2022-10-31T02:19:30;10.31;99.99
68251;DHT22;55066;51.560;4.642;2022-10-31T02:22:06;10.27;99.99
68251;DHT22;55066;51.560;4.642;2022-10-31T02:27:50;10.11;99.99
68251;DHT22;55066;51.560;4.642;2022-10-31T02:30:18;10.10;99.99
68251;DHT22;55066;51.560;4.642;2022-10-31T02:38:50;10.11;99.99
68251;DHT22;55066;51.560;4.642;2022-10-31T02:41:37;10.02;99.99
68251;DHT22;55066;51.560;4.642;2022-10-31T02:44:28;9.97;99.99
68251;DHT22;55066;51.560;4.642;2022-10-31T02:47:05;10.00;99.99
68251;DHT22;55066;51.560;4.642;2022-10-31T02:49:49;10.02;99.99
68251;DHT22;55066;51.560;4.642;2022-10-31T02:52:21;10.04;99.99
68251;DHT22;55066;51.560;4.642;2022-10-31T02:54:47;10.06;99.99
68251;DHT22;55066;51.560;4.642;2022-10-31T02:57:15;10.07;99.99
68251;DHT22;55066;51.560;4.642;2022-10-31T02:59:47;9.99;99.99
68251;DHT22;55066;51.560;4.642;2022-10-31T03:05:22;10.04;99.99
68251;DHT22;55066;51.560;4.642;2022-10-31T03:10:42;10.10;99.99
68251;DHT22;55066;51.560;4.642;2022-10-31T03:15:51;10.09;99.99
68251;DHT22;55066;51.560;4.642;2022-10-31T03:18:33;10.04;99.99
68251;DHT22;55066;51.560;4.642;2022-10-31T03:21:16;10.03;99.99
68251;DHT22;55066;51.560;4.642;2022-10-31T03:23:46;9.99;99.99
68251;DHT22;55066;51.560;4.642;2022-10-31T03:26:19;9.93;99.99
68251;DHT22;55066;51.560;4.642;2022-10-31T03:28:50;9.92;99.99
68251;DHT22;55066;51.560;4.642;2022-10-31T03:31:19;9.89;99.99
68251;DHT22;55066;51.560;4.642;2022-10-31T03:33:48;9.89;99.99
68251;DHT22;55066;51.560;4.642;2022-10-31T03:36:16;9.81;99.99
68251;DHT22;55066;51.560;4.642;2022-10-31T03:38:45;9.81;99.99
68251;DHT22;55066;51.560;4.642;2022-10-31T03:41:18;9.76;99.99
68251;DHT22;55066;51.560;4.642;2022-10-31T03:43:49;9.79;99.99
68251;DHT22;55066;51.560;4.642;2022-10-31T03:46:17;9.83;99.99
68251;DHT22;55066;51.560;4.642;2022-10-31T03:48:43;9.85;99.99
68251;DHT22;55066;51.560;4.642;2022-10-31T03:51:27;9.81;99.99
68251;DHT22;55066;51.560;4.642;2022-10-31T03:54:04;9.79;99.99
68251;DHT22;55066;51.560;4.642;2022-10-31T03:56:49;9.76;99.99
68251;DHT22;55066;51.560;4.642;2022-10-31T03:59:19;9.72;99.99
68251;DHT22;55066;51.560;4.642;2022-10-31T04:01:49;9.72;99.99
68251;DHT22;55066;51.560;4.642;2022-10-31T04:04:16;9.75;99.99
68251;DHT22;55066;51.560;4.642;2022-10-31T04:06:44;9.76;99.99
68251;DHT22;55066;51.560;4.642;2022-10-31T04:09:10;9.75;99.84
68251;DHT22;55066;51.560;4.642;2022-10-31T04:11:42;9.75;99.93
68251;DHT22;55066;51.560;4.642;2022-10-31T04:14:35;9.73;99.79
68251;DHT22;55066;51.560;4.642;2022-10-31T04:17:03;9.66;99.68
68251;DHT22;55066;51.560;4.642;2022-10-31T04:19:34;9.63;99.80
68251;DHT22;55066;51.560;4.642;2022-10-31T04:22:00;9.62;99.86
68251;DHT22;55066;51.560;4.642;2022-10-31T04:24:26;9.63;99.77
68251;DHT22;55066;51.560;4.642;2022-10-31T04:26:51;9.59;99.54
68251;DHT22;55066;51.560;4.642;2022-10-31T04:29:19;9.52;99.87
68251;DHT22;55066;51.560;4.642;2022-10-31T04:31:45;9.51;99.99
68251;DHT22;55066;51.560;4.642;2022-10-31T04:34:11;9.48;99.91
68251;DHT22;55066;51.560;4.642;2022-10-31T04:36:36;9.46;99.89
68251;DHT22;55066;51.560;4.642;2022-10-31T04:39:02;9.46;99.85
68251;DHT22;55066;51.560;4.642;2022-10-31T04:41:41;9.37;99.97
68251;DHT22;55066;51.560;4.642;2022-10-31T04:44:12;9.44;99.93
68251;DHT22;55066;51.560;4.642;2022-10-31T04:46:37;9.48;99.70
68251;DHT22;55066;51.560;4.642;2022-10-31T04:49:03;9.46;99.48
68251;DHT22;55066;51.560;4.642;2022-10-31T04:51:28;9.41;99.61
68251;DHT22;55066;51.560;4.642;2022-10-31T04:53:54;9.39;99.55
68251;DHT22;55066;51.560;4.642;2022-10-31T04:56:55;9.42;99.37
68251;DHT22;55066;51.560;4.642;2022-10-31T04:59:22;9.39;99.43
68251;DHT22;55066;51.560;4.642;2022-10-31T05:01:51;9.45;99.29
68251;DHT22;55066;51.560;4.642;2022-10-31T05:04:21;9.46;99.09
68251;DHT22;55066;51.560;4.642;2022-10-31T05:06:48;9.44;99.13
68251;DHT22;55066;51.560;4.642;2022-10-31T05:09:14;9.42;99.19
68251;DHT22;55066;51.560;4.642;2022-10-31T05:11:39;9.41;99.22
68251;DHT22;55066;51.560;4.642;2022-10-31T05:14:17;9.49;98.95
68251;DHT22;55066;51.560;4.642;2022-10-31T05:17:03;9.49;98.76
68251;DHT22;55066;51.560;4.642;2022-10-31T05:19:57;9.52;98.68
68251;DHT22;55066;51.560;4.642;2022-10-31T05:22:44;9.51;98.44
68251;DHT22;55066;51.560;4.642;2022-10-31T05:25:10;9.48;98.66
68251;DHT22;55066;51.560;4.642;2022-10-31T05:27:39;9.41;98.85
68251;DHT22;55066;51.560;4.642;2022-10-31T05:30:05;9.41;98.89
68251;DHT22;55066;51.560;4.642;2022-10-31T05:32:39;9.41;98.91
68251;DHT22;55066;51.560;4.642;2022-10-31T05:35:34;9.38;99.99
68251;DHT22;55066;51.560;4.642;2022-10-31T05:38:19;9.34;99.99
68251;DHT22;55066;51.560;4.642;2022-10-31T05:40:45;9.30;99.99
68251;DHT22;55066;51.560;4.642;2022-10-31T05:43:11;9.35;99.33
68251;DHT22;55066;51.560;4.642;2022-10-31T05:45:37;9.39;99.99
68251;DHT22;55066;51.560;4.642;2022-10-31T05:48:08;9.39;98.94
68251;DHT22;55066;51.560;4.642;2022-10-31T05:50:59;9.38;99.99
68251;DHT22;55066;51.560;4.642;2022-10-31T05:53:24;9.31;99.99
68251;DHT22;55066;51.560;4.642;2022-10-31T05:55:50;9.31;99.99
68251;DHT22;55066;51.560;4.642;2022-10-31T05:58:20;9.27;99.99
68251;DHT22;55066;51.560;4.642;2022-10-31T06:01:05;9.23;99.99
68251;DHT22;55066;51.560;4.642;2022-10-31T06:03:31;9.27;99.99
68251;DHT22;55066;51.560;4.642;2022-10-31T06:05:59;9.27;99.99
68251;DHT22;55066;51.560;4.642;2022-10-31T06:08:30;9.21;99.99
68251;DHT22;55066;51.560;4.642;2022-10-31T06:10:59;9.20;99.99
68251;DHT22;55066;51.560;4.642;2022-10-31T06:13:44;9.16;99.99
68251;DHT22;55066;51.560;4.642;2022-10-31T06:16:18;9.21;99.96
68251;DHT22;55066;51.560;4.642;2022-10-31T06:18:48;9.35;99.99
68251;DHT22;55066;51.560;4.642;2022-10-31T06:21:14;9.48;99.99
68251;DHT22;55066;51.560;4.642;2022-10-31T06:23:39;9.42;99.99
68251;DHT22;55066;51.560;4.642;2022-10-31T06:26:25;9.34;99.99
68251;DHT22;55066;51.560;4.642;2022-10-31T06:28:51;9.34;99.99
68251;DHT22;55066;51.560;4.642;2022-10-31T06:31:30;9.27;99.99
68251;DHT22;55066;51.560;4.642;2022-10-31T06:33:56;9.27;99.99
68251;DHT22;55066;51.560;4.642;2022-10-31T06:36:22;9.35;99.99
68251;DHT22;55066;51.560;4.642;2022-10-31T06:38:47;9.31;99.85
68251;DHT22;55066;51.560;4.642;2022-10-31T06:41:15;9.30;99.99
68251;DHT22;55066;51.560;4.642;2022-10-31T06:43:46;9.46;99.99
68251;DHT22;55066;51.560;4.642;2022-10-31T06:46:33;9.56;99.99
68251;DHT22;55066;51.560;4.642;2022-10-31T06:49:09;9.58;99.99
68251;DHT22;55066;51.560;4.642;2022-10-31T06:51:40;9.59;99.99
68251;DHT22;55066;51.560;4.642;2022-10-31T06:54:06;9.55;99.99
68251;DHT22;55066;51.560;4.642;2022-10-31T06:56:31;9.55;99.99
68251;DHT22;55066;51.560;4.642;2022-10-31T06:58:58;9.63;99.99
68251;DHT22;55066;51.560;4.642;2022-10-31T07:01:43;9.76;99.99
68251;DHT22;55066;51.560;4.642;2022-10-31T07:04:10;9.72;99.99
68251;DHT22;55066;51.560;4.642;2022-10-31T07:06:35;9.83;99.99
68251;DHT22;55066;51.560;4.642;2022-10-31T07:09:01;9.81;99.99
68251;DHT22;55066;51.560;4.642;2022-10-31T07:11:26;9.83;99.99
68251;DHT22;55066;51.560;4.642;2022-10-31T07:13:54;9.92;99.99
68251;DHT22;55066;51.560;4.642;2022-10-31T07:16:19;9.94;99.99
68251;DHT22;55066;51.560;4.642;2022-10-31T07:18:45;10.02;99.99
68251;DHT22;55066;51.560;4.642;2022-10-31T07:21:11;10.04;99.99
68251;DHT22;55066;51.560;4.642;2022-10-31T07:23:37;10.11;99.99
68251;DHT22;55066;51.560;4.642;2022-10-31T07:26:21;10.16;99.99
68251;DHT22;55066;51.560;4.642;2022-10-31T07:28:47;10.27;99.99
68251;DHT22;55066;51.560;4.642;2022-10-31T07:31:14;10.30;99.99
68251;DHT22;55066;51.560;4.642;2022-10-31T07:33:39;10.34;99.99
68251;DHT22;55066;51.560;4.642;2022-10-31T07:36:23;10.45;99.99
68251;DHT22;55066;51.560;4.642;2022-10-31T07:38:51;10.55;99.99
68251;DHT22;55066;51.560;4.642;2022-10-31T07:44:07;10.80;99.99
68251;DHT22;55066;51.560;4.642;2022-10-31T07:46:52;10.78;99.99
68251;DHT22;55066;51.560;4.642;2022-10-31T07:49:56;10.80;99.99
68251;DHT22;55066;51.560;4.642;2022-10-31T07:52:40;10.80;99.99
68251;DHT22;55066;51.560;4.642;2022-10-31T07:55:24;10.82;99.99
68251;DHT22;55066;51.560;4.642;2022-10-31T07:57:57;10.89;99.99
68251;DHT22;55066;51.560;4.642;2022-10-31T08:00:23;10.97;99.99
68251;DHT22;55066;51.560;4.642;2022-10-31T08:03:03;11.02;99.99
68251;DHT22;55066;51.560;4.642;2022-10-31T08:05:48;11.07;99.99
68251;DHT22;55066;51.560;4.642;2022-10-31T08:08:33;11.12;99.99
68251;DHT22;55066;51.560;4.642;2022-10-31T08:10:58;11.19;99.99
68251;DHT22;55066;51.560;4.642;2022-10-31T08:13:24;11.20;99.99
68251;DHT22;55066;51.560;4.642;2022-10-31T08:15:50;11.23;99.99
68251;DHT22;55066;51.560;4.642;2022-10-31T08:18:21;11.27;99.99
68251;DHT22;55066;51.560;4.642;2022-10-31T08:20:49;11.37;99.99
68251;DHT22;55066;51.560;4.642;2022-10-31T08:23:14;11.50;99.99
68251;DHT22;55066;51.560;4.642;2022-10-31T08:25:41;11.62;99.99
68251;DHT22;55066;51.560;4.642;2022-10-31T08:28:09;11.68;99.99
68251;DHT22;55066;51.560;4.642;2022-10-31T08:30:36;11.83;99.99
68251;DHT22;55066;51.560;4.642;2022-10-31T08:33:37;11.96;99.99
68251;DHT22;55066;51.560;4.642;2022-10-31T08:36:11;12.09;99.99
68251;DHT22;55066;51.560;4.642;2022-10-31T08:38:54;12.16;99.99
68251;DHT22;55066;51.560;4.642;2022-10-31T08:41:20;12.15;99.99
68251;DHT22;55066;51.560;4.642;2022-10-31T08:43:46;12.22;99.99
68251;DHT22;55066;51.560;4.642;2022-10-31T08:46:11;12.37;99.99
68251;DHT22;55066;51.560;4.642;2022-10-31T08:48:38;12.48;99.99
68251;DHT22;55066;51.560;4.642;2022-10-31T08:51:04;12.54;99.99
68251;DHT22;55066;51.560;4.642;2022-10-31T08:53:30;12.55;99.99
68251;DHT22;55066;51.560;4.642;2022-10-31T08:56:14;12.60;99.99
68251;DHT22;55066;51.560;4.642;2022-10-31T08:58:40;12.67;99.99
68251;DHT22;55066;51.560;4.642;2022-10-31T09:01:05;12.68;99.99
68251;DHT22;55066;51.560;4.642;2022-10-31T09:03:31;12.77;99.99
68251;DHT22;55066;51.560;4.642;2022-10-31T09:06:00;12.84;99.99
68251;DHT22;55066;51.560;4.642;2022-10-31T09:08:31;12.81;99.99
68251;DHT22;55066;51.560;4.642;2022-10-31T09:10:57;12.85;99.99
68251;DHT22;55066;51.560;4.642;2022-10-31T09:13:43;12.89;99.99
68251;DHT22;55066;51.560;4.642;2022-10-31T09:16:31;12.91;99.99
68251;DHT22;55066;51.560;4.642;2022-10-31T09:18:57;13.08;99.99
68251;DHT22;55066;51.560;4.642;2022-10-31T09:21:25;13.30;99.99
68251;DHT22;55066;51.560;4.642;2022-10-31T09:23:52;13.53;99.99
68251;DHT22;55066;51.560;4.642;2022-10-31T09:26:19;13.61;99.99
68251;DHT22;55066;51.560;4.642;2022-10-31T09:28:55;13.75;99.99
68251;DHT22;55066;51.560;4.642;2022-10-31T09:31:22;13.82;99.99
68251;DHT22;55066;51.560;4.642;2022-10-31T09:33:54;13.77;99.99
68251;DHT22;55066;51.560;4.642;2022-10-31T09:36:40;13.92;99.99
68251;DHT22;55066;51.560;4.642;2022-10-31T09:39:10;14.15;99.99
68251;DHT22;55066;51.560;4.642;2022-10-31T09:44:26;14.01;99.99
68251;DHT22;55066;51.560;4.642;2022-10-31T09:47:13;14.06;99.99
68251;DHT22;55066;51.560;4.642;2022-10-31T09:50:19;14.09;99.99
68251;DHT22;55066;51.560;4.642;2022-10-31T09:53:12;14.28;99.99
68251;DHT22;55066;51.560;4.642;2022-10-31T09:55:44;14.20;99.99
68251;DHT22;55066;51.560;4.642;2022-10-31T09:58:24;14.09;99.99
68251;DHT22;55066;51.560;4.642;2022-10-31T10:00:50;14.26;99.99
68251;DHT22;55066;51.560;4.642;2022-10-31T10:03:39;14.23;99.99
68251;DHT22;55066;51.560;4.642;2022-10-31T10:06:32;14.30;99.99
68251;DHT22;55066;51.560;4.642;2022-10-31T10:09:25;14.33;99.99
68251;DHT22;55066;51.560;4.642;2022-10-31T10:15:08;14.39;99.99
68251;DHT22;55066;51.560;4.642;2022-10-31T10:20:32;14.71;99.99
68251;DHT22;55066;51.560;4.642;2022-10-31T10:23:35;14.89;99.99
68251;DHT22;55066;51.560;4.642;2022-10-31T10:26:10;14.87;99.99
68251;DHT22;55066;51.560;4.642;2022-10-31T10:28:40;15.06;99.99
68251;DHT22;55066;51.560;4.642;2022-10-31T10:31:23;14.94;99.99
68251;DHT22;55066;51.560;4.642;2022-10-31T10:34:01;14.92;99.99
68251;DHT22;55066;51.560;4.642;2022-10-31T10:36:36;14.88;99.99
68251;DHT22;55066;51.560;4.642;2022-10-31T10:39:17;14.80;99.99
68251;DHT22;55066;51.560;4.642;2022-10-31T10:41:47;14.70;99.99
68251;DHT22;55066;51.560;4.642;2022-10-31T10:44:33;14.70;99.99
68251;DHT22;55066;51.560;4.642;2022-10-31T10:47:18;14.66;99.99
68251;DHT22;55066;51.560;4.642;2022-10-31T10:52:58;14.59;99.99
68251;DHT22;55066;51.560;4.642;2022-10-31T10:58:29;14.64;99.99
68251;DHT22;55066;51.560;4.642;2022-10-31T11:00:55;14.73;99.99
68251;DHT22;55066;51.560;4.642;2022-10-31T11:03:20;14.77;99.99
68251;DHT22;55066;51.560;4.642;2022-10-31T11:05:54;14.85;99.99
68251;DHT22;55066;51.560;4.642;2022-10-31T11:08:31;14.91;99.99
68251;DHT22;55066;51.560;4.642;2022-10-31T11:11:06;15.11;99.99
68251;DHT22;55066;51.560;4.642;2022-10-31T11:13:33;15.16;99.90
68251;DHT22;55066;51.560;4.642;2022-10-31T11:16:06;15.26;99.99
68251;DHT22;55066;51.560;4.642;2022-10-31T11:18:34;15.39;99.99
68251;DHT22;55066;51.560;4.642;2022-10-31T11:21:01;15.59;99.99
68251;DHT22;55066;51.560;4.642;2022-10-31T11:23:28;15.63;99.99
68251;DHT22;55066;51.560;4.642;2022-10-31T11:26:00;15.64;99.99
68251;DHT22;55066;51.560;4.642;2022-10-31T11:28:27;15.87;99.99
68251;DHT22;55066;51.560;4.642;2022-10-31T11:30:55;15.84;99.99
68251;DHT22;55066;51.560;4.642;2022-10-31T11:36:00;15.78;99.99
68251;DHT22;55066;51.560;4.642;2022-10-31T11:38:39;16.05;99.99
68251;DHT22;55066;51.560;4.642;2022-10-31T11:41:13;16.12;99.99
68251;DHT22;55066;51.560;4.642;2022-10-31T11:43:40;16.04;99.99
68251;DHT22;55066;51.560;4.642;2022-10-31T11:46:14;16.22;99.99
68251;DHT22;55066;51.560;4.642;2022-10-31T11:48:47;16.19;99.94
68251;DHT22;55066;51.560;4.642;2022-10-31T11:51:20;16.30;99.60
68251;DHT22;55066;51.560;4.642;2022-10-31T11:53:53;16.57;99.73
68251;DHT22;55066;51.560;4.642;2022-10-31T11:56:20;16.53;99.07
68251;DHT22;55066;51.560;4.642;2022-10-31T11:58:56;16.53;98.21
68251;DHT22;55066;51.560;4.642;2022-10-31T12:01:27;16.49;99.85
68251;DHT22;55066;51.560;4.642;2022-10-31T12:04:07;16.62;99.57
68251;DHT22;55066;51.560;4.642;2022-10-31T12:06:35;16.52;98.24
68251;DHT22;55066;51.560;4.642;2022-10-31T12:09:04;16.26;99.65
68251;DHT22;55066;51.560;4.642;2022-10-31T12:14:37;16.15;99.99
68251;DHT22;55066;51.560;4.642;2022-10-31T12:17:15;16.14;99.99
68251;DHT22;55066;51.560;4.642;2022-10-31T12:22:51;15.96;99.99
68251;DHT22;55066;51.560;4.642;2022-10-31T12:25:26;15.83;99.99
68251;DHT22;55066;51.560;4.642;2022-10-31T12:39:23;15.73;99.99
68251;DHT22;55066;51.560;4.642;2022-10-31T12:42:05;15.57;99.99
68251;DHT22;55066;51.560;4.642;2022-10-31T12:47:53;15.78;99.99
68251;DHT22;55066;51.560;4.642;2022-10-31T13:01:52;15.97;99.99
68251;DHT22;55066;51.560;4.642;2022-10-31T13:07:23;16.48;99.99
68251;DHT22;55066;51.560;4.642;2022-10-31T13:10:43;16.60;99.31
68251;DHT22;55066;51.560;4.642;2022-10-31T13:12:44;16.83;99.33
68251;DHT22;55066;51.560;4.642;2022-10-31T13:15:16;16.80;99.04
68251;DHT22;55066;51.560;4.642;2022-10-31T13:17:46;16.72;98.74
68251;DHT22;55066;51.560;4.642;2022-10-31T13:22:54;16.79;99.07
68251;DHT22;55066;51.560;4.642;2022-10-31T13:25:27;16.85;99.02
68251;DHT22;55066;51.560;4.642;2022-10-31T13:28:01;16.99;98.49
68251;DHT22;55066;51.560;4.642;2022-10-31T13:30:32;16.90;98.62
68251;DHT22;55066;51.560;4.642;2022-10-31T13:33:05;16.84;99.27
68251;DHT22;55066;51.560;4.642;2022-10-31T13:35:52;16.80;99.23
68251;DHT22;55066;51.560;4.642;2022-10-31T13:38:27;16.72;99.34
68251;DHT22;55066;51.560;4.642;2022-10-31T13:41:03;16.77;99.18
68251;DHT22;55066;51.560;4.642;2022-10-31T13:46:23;16.56;99.58
68251;DHT22;55066;51.560;4.642;2022-10-31T13:48:48;16.64;99.33
68251;DHT22;55066;51.560;4.642;2022-10-31T13:51:24;16.57;99.86
68251;DHT22;55066;51.560;4.642;2022-10-31T13:56:30;16.67;99.43
68251;DHT22;55066;51.560;4.642;2022-10-31T14:01:34;16.52;99.86
68251;DHT22;55066;51.560;4.642;2022-10-31T14:04:14;16.53;99.99
68251;DHT22;55066;51.560;4.642;2022-10-31T14:10:21;16.62;99.99
68251;DHT22;55066;51.560;4.642;2022-10-31T14:12:24;16.59;99.99
68251;DHT22;55066;51.560;4.642;2022-10-31T14:14:56;16.64;99.99
68251;DHT22;55066;51.560;4.642;2022-10-31T14:17:25;16.63;99.99
68251;DHT22;55066;51.560;4.642;2022-10-31T14:20:21;16.60;99.99
68251;DHT22;55066;51.560;4.642;2022-10-31T14:22:46;16.76;99.78
68251;DHT22;55066;51.560;4.642;2022-10-31T14:25:29;16.87;99.64
68251;DHT22;55066;51.560;4.642;2022-10-31T14:27:56;16.84;99.61
68251;DHT22;55066;51.560;4.642;2022-10-31T14:30:24;16.91;99.51
68251;DHT22;55066;51.560;4.642;2022-10-31T14:33:01;17.27;98.71
68251;DHT22;55066;51.560;4.642;2022-10-31T14:35:37;17.57;97.28
68251;DHT22;55066;51.560;4.642;2022-10-31T14:41:14;17.87;95.08
68251;DHT22;55066;51.560;4.642;2022-10-31T14:44:00;17.76;95.91
68251;DHT22;55066;51.560;4.642;2022-10-31T14:51:51;16.69;99.01
68251;DHT22;55066;51.560;4.642;2022-10-31T14:54:23;16.64;99.25
68251;DHT22;55066;51.560;4.642;2022-10-31T14:56:56;16.81;98.79
68251;DHT22;55066;51.560;4.642;2022-10-31T14:59:27;17.14;97.79
68251;DHT22;55066;51.560;4.642;2022-10-31T15:01:58;17.11;97.44
68251;DHT22;55066;51.560;4.642;2022-10-31T15:04:27;16.87;98.47
68251;DHT22;55066;51.560;4.642;2022-10-31T15:10:06;16.59;99.44
68251;DHT22;55066;51.560;4.642;2022-10-31T15:12:43;16.48;99.78
68251;DHT22;55066;51.560;4.642;2022-10-31T15:15:13;16.32;99.99
68251;DHT22;55066;51.560;4.642;2022-10-31T15:17:58;16.17;99.99
68251;DHT22;55066;51.560;4.642;2022-10-31T15:20:36;16.05;99.99
68251;DHT22;55066;51.560;4.642;2022-10-31T15:23:02;15.98;99.99
68251;DHT22;55066;51.560;4.642;2022-10-31T15:25:33;16.11;99.99
68251;DHT22;55066;51.560;4.642;2022-10-31T15:27:59;16.04;99.99
68251;DHT22;55066;51.560;4.642;2022-10-31T15:30:27;15.98;99.99
68251;DHT22;55066;51.560;4.642;2022-10-31T15:32:53;16.02;99.99
68251;DHT22;55066;51.560;4.642;2022-10-31T15:35:29;16.01;99.99
68251;DHT22;55066;51.560;4.642;2022-10-31T15:37:57;16.04;99.99
68251;DHT22;55066;51.560;4.642;2022-10-31T15:40:24;15.94;99.99
68251;DHT22;55066;51.560;4.642;2022-10-31T15:42:59;15.80;99.99
68251;DHT22;55066;51.560;4.642;2022-10-31T15:45:27;15.69;99.99
68251;DHT22;55066;51.560;4.642;2022-10-31T15:48:02;15.67;99.99
68251;DHT22;55066;51.560;4.642;2022-10-31T15:50:51;15.61;99.99
68251;DHT22;55066;51.560;4.642;2022-10-31T15:53:26;15.52;99.99
68251;DHT22;55066;51.560;4.642;2022-10-31T15:55:59;15.53;99.99
68251;DHT22;55066;51.560;4.642;2022-10-31T15:58:26;15.43;99.99
68251;DHT22;55066;51.560;4.642;2022-10-31T16:01:02;15.43;99.99
68251;DHT22;55066;51.560;4.642;2022-10-31T16:03:30;15.38;99.99
68251;DHT22;55066;51.560;4.642;2022-10-31T16:05:58;15.22;99.99
68251;DHT22;55066;51.560;4.642;2022-10-31T16:10:55;15.08;99.99
68251;DHT22;55066;51.560;4.642;2022-10-31T16:13:28;15.02;99.99
68251;DHT22;55066;51.560;4.642;2022-10-31T16:16:14;14.94;99.99
68251;DHT22;55066;51.560;4.642;2022-10-31T16:18:40;14.83;99.99
68251;DHT22;55066;51.560;4.642;2022-10-31T16:21:27;14.80;99.99
68251;DHT22;55066;51.560;4.642;2022-10-31T16:23:58;14.81;99.99
68251;DHT22;55066;51.560;4.642;2022-10-31T16:26:26;14.76;99.99
68251;DHT22;55066;51.560;4.642;2022-10-31T16:28:58;14.66;99.99
68251;DHT22;55066;51.560;4.642;2022-10-31T16:31:40;14.70;99.99
68251;DHT22;55066;51.560;4.642;2022-10-31T16:34:15;14.76;99.99
68251;DHT22;55066;51.560;4.642;2022-10-31T16:36:42;14.44;99.99
68251;DHT22;55066;51.560;4.642;2022-10-31T16:39:08;14.36;99.99
68251;DHT22;55066;51.560;4.642;2022-10-31T16:41:39;14.26;99.99
68251;DHT22;55066;51.560;4.642;2022-10-31T16:44:14;14.33;99.99
68251;DHT22;55066;51.560;4.642;2022-10-31T16:46:41;14.29;99.99
68251;DHT22;55066;51.560;4.642;2022-10-31T16:49:09;14.40;99.99
68251;DHT22;55066;51.560;4.642;2022-10-31T16:51:34;14.36;99.99
68251;DHT22;55066;51.560;4.642;2022-10-31T16:54:00;14.20;99.99
68251;DHT22;55066;51.560;4.642;2022-10-31T16:57:00;14.13;99.99
68251;DHT22;55066;51.560;4.642;2022-10-31T16:59:27;14.01;99.99
68251;DHT22;55066;51.560;4.642;2022-10-31T17:01:54;14.00;99.99
68251;DHT22;55066;51.560;4.642;2022-10-31T17:04:20;13.98;99.99
68251;DHT22;55066;51.560;4.642;2022-10-31T17:06:45;13.92;99.99
68251;DHT22;55066;51.560;4.642;2022-10-31T17:09:11;13.89;99.99
68251;DHT22;55066;51.560;4.642;2022-10-31T17:11:39;13.86;99.99
68251;DHT22;55066;51.560;4.642;2022-10-31T17:14:08;14.08;99.99
68251;DHT22;55066;51.560;4.642;2022-10-31T17:16:33;14.05;99.99
68251;DHT22;55066;51.560;4.642;2022-10-31T17:18:59;13.95;99.99
68251;DHT22;55066;51.560;4.642;2022-10-31T17:21:24;13.89;99.99
68251;DHT22;55066;51.560;4.642;2022-10-31T17:23:52;13.82;99.99
68251;DHT22;55066;51.560;4.642;2022-10-31T17:26:18;13.88;99.99
68251;DHT22;55066;51.560;4.642;2022-10-31T17:28:44;13.81;99.99
68251;DHT22;55066;51.560;4.642;2022-10-31T17:31:29;13.74;99.99
68251;DHT22;55066;51.560;4.642;2022-10-31T17:33:55;13.63;99.99
68251;DHT22;55066;51.560;4.642;2022-10-31T17:36:21;13.61;99.99
68251;DHT22;55066;51.560;4.642;2022-10-31T17:38:47;13.63;99.99
68251;DHT22;55066;51.560;4.642;2022-10-31T17:41:12;13.56;99.99
68251;DHT22;55066;51.560;4.642;2022-10-31T17:43:38;13.47;99.99
68251;DHT22;55066;51.560;4.642;2022-10-31T17:46:04;13.68;99.99
68251;DHT22;55066;51.560;4.642;2022-10-31T17:48:29;13.60;99.99
68251;DHT22;55066;51.560;4.642;2022-10-31T17:50:59;13.68;99.99